Aérodrome :
LOGIN :

S'inscrire | Disclaimer

   EN    FR    IT 

 










Légende :    VFR   VFR Marginal   IFR   IFR Intensif   IFR Très Intensif
Visi : 
Plafond : 
>= 8 km
>= 3000ft
5 à 8 km
1000 à 3000 ft
1500m à 5 km
500 à 1000 ft
800 à 1500m
200 à 500 ft
< 800m
< 200 ft
Symboles :   Orages  Brouillard  Fortes neiges  Fortes précipitations  Vent > 20 kt
SIGMETs :   Divers  Orages  Givrage  Turbulence  Onde Orograph.  Cendres Volcan.







- Altitude de l'aérodrome : 741 ft
- Code IATA : PED


LKPD - Pardubice AB

DERNIER METAR :
  • 180300Z 26001KT 0800 R27/P2000 R09/0500 BCFG NSC 07/06 Q1018 RMK YLO

METARs EXPIRÉS :
  • 180200Z VRB02KT 5000 MIFG NSC 07/06 Q1018 RMK GRN
  • 180100Z 21003KT 5000 MIFG NSC 08/07 Q1019

TAF COR TAF LKPD
Valide du 18 à 00h jusqu'au 19 à 00h UTC


172300Z 1800/1900 VRB02KT 5000 BCFG BR
TEMPO 1801/1806 1500 BR SCT005
PROB40
TEMPO 1801/1806 0400 FG VV002
BECMG 1805/1807 9999 NSW BKN020
BECMG 1810/1812 BKN035
Pas de NOTAMs connus pour ce terrain.



MET'MAP, la Météo Aéronautique d'un coup d'oeil ! - Copyright ORBIFLY Décembre 2007 - Disclaimer

ORBIFLY MET'MAP TEAM :

Programmation & Développement : Alexandra Zaïnal
Conception & Développement : Baudouin d'Aumeries
Co-Programmation & Développement : Marc-Olivier Méhu
Soutien technique & logistique : Manuel Goepfert

Contact : metmap@orbifly.com




SOURCES & CREDITS :

   NOAA